Time;durP1;ratioP1;P1;durP2;ratioP2;P2;SDS_P1;SDS_P2;PMS_P1;PMS_P2;Temp;Humidity;BMP_temperature;BMP_pressure;BME280_temperature;BME280_humidity;BME280_pressure;Samples;Min_cycle;Max_cycle;Signal;HPM_P1;HPM_P2
2023/06/16 00:06:56;;;;;;;1999.90;999.90;;;18.90;86.00;;;;;;6667570;88;20284;-76
2023/06/16 00:16:57;;;;;;;1999.90;999.90;;;18.80;86.30;;;;;;6678648;88;20200;-77
2023/06/16 00:26:57;;;;;;;1999.90;999.90;;;18.60;88.20;;;;;;6665370;88;20225;-75
2023/06/16 00:36:58;;;;;;;1999.90;999.90;;;18.20;88.40;;;;;;6673626;88;20184;-77
2023/06/16 00:46:59;;;;;;;1999.90;999.90;;;17.80;90.80;;;;;;6677120;88;20968;-76
2023/06/16 00:57:00;;;;;;;1999.90;999.90;;;17.60;91.60;;;;;;6658665;88;20193;-77
2023/06/16 01:07:11;;;;;;;1999.90;999.90;;;17.40;94.00;;;;;;6666723;88;20188;-76
2023/06/16 01:17:15;;;;;;;1999.90;999.90;;;17.30;94.80;;;;;;6672056;88;20234;-76
2023/06/16 01:27:21;;;;;;;1999.90;999.90;;;17.10;96.50;;;;;;6679134;88;20702;-76
2023/06/16 01:37:22;;;;;;;1999.90;999.90;;;17.20;97.60;;;;;;6668292;88;20558;-76
2023/06/16 01:47:24;;;;;;;1999.90;999.90;;;17.10;99.90;;;;;;6661153;89;20212;-76
2023/06/16 01:57:26;;;;;;;1999.90;999.90;;;17.10;99.90;;;;;;6658972;88;20699;-76
2023/06/16 02:07:33;;;;;;;1999.90;999.90;;;17.10;99.90;;;;;;6666006;89;20650;-77
2023/06/16 02:17:33;;;;;;;1999.90;999.90;;;17.00;99.90;;;;;;6664581;88;20181;-76
2023/06/16 02:27:34;;;;;;;1999.90;999.90;;;16.70;99.90;;;;;;6662368;89;20334;-76
2023/06/16 02:37:36;;;;;;;1999.90;999.90;;;16.50;99.90;;;;;;6660728;88;20229;-75
2023/06/16 02:47:36;;;;;;;1999.90;999.90;;;16.30;99.90;;;;;;6666463;88;20202;-76
2023/06/16 02:57:37;;;;;;;1999.90;999.90;;;16.00;99.90;;;;;;6674693;88;20614;-77
2023/06/16 03:07:38;;;;;;;1999.90;999.90;;;15.80;99.90;;;;;;6664188;88;21013;-76
2023/06/16 03:17:38;;;;;;;1999.90;999.90;;;15.70;99.90;;;;;;6664603;88;20214;-76
2023/06/16 03:27:40;;;;;;;1999.90;999.90;;;15.50;99.90;;;;;;6666158;88;20173;-75
2023/06/16 03:37:40;;;;;;;1999.90;999.90;;;15.40;99.90;;;;;;6664729;88;20282;-74
2023/06/16 03:47:41;;;;;;;1999.90;999.90;;;15.40;99.90;;;;;;6664310;88;20238;-76
2023/06/16 03:57:42;;;;;;;1999.90;999.90;;;15.30;99.90;;;;;;6667887;88;20193;-76
2023/06/16 04:07:42;;;;;;;1999.90;999.90;;;15.30;99.90;;;;;;6669992;88;20572;-76
2023/06/16 04:17:43;;;;;;;1999.90;999.90;;;15.30;99.90;;;;;;6667301;88;20281;-76
2023/06/16 04:27:43;;;;;;;1999.90;999.90;;;15.20;99.90;;;;;;6664611;88;20185;-76
2023/06/16 04:37:44;;;;;;;1999.90;999.90;;;15.30;99.90;;;;;;6658638;88;20191;-76
2023/06/16 04:47:45;;;;;;;1999.90;999.90;;;15.40;99.90;;;;;;6668910;88;20207;-75
2023/06/16 04:57:45;;;;;;;1999.90;999.90;;;15.50;99.90;;;;;;6665957;88;20310;-75
2023/06/16 05:07:46;;;;;;;1999.90;999.90;;;15.60;99.90;;;;;;6664466;88;20183;-76
2023/06/16 05:17:47;;;;;;;1999.90;999.90;;;15.80;99.90;;;;;;6675977;88;20184;-76
2023/06/16 05:27:47;;;;;;;1999.90;999.90;;;16.00;99.90;;;;;;6669168;88;20206;-75
2023/06/16 05:37:48;;;;;;;1999.90;999.90;;;16.20;99.90;;;;;;6667225;88;20266;-76
2023/06/16 05:47:49;;;;;;;1999.90;999.90;;;16.50;99.90;;;;;;6668764;88;20224;-76
2023/06/16 05:57:50;;;;;;;1999.90;999.90;;;16.70;99.90;;;;;;6663026;88;20642;-76
2023/06/16 06:07:50;;;;;;;1999.90;999.90;;;17.30;99.90;;;;;;6662065;88;20227;-75
2023/06/16 06:17:51;;;;;;;1999.90;999.90;;;18.50;99.90;;;;;;6666521;88;20671;-75
2023/06/16 06:27:51;;;;;;;1999.90;999.90;;;19.50;99.90;;;;;;6681895;88;20712;-76
2023/06/16 06:37:52;;;;;;;1999.90;999.90;;;20.20;99.30;;;;;;6667487;88;20764;-75
2023/06/16 06:47:53;;;;;;;1999.90;999.90;;;20.90;96.40;;;;;;6682947;88;20275;-76
2023/06/16 06:57:53;;;;;;;1999.90;999.90;;;21.40;95.50;;;;;;6676107;88;20261;-76
2023/06/16 07:07:54;;;;;;;1999.90;999.90;;;22.10;94.20;;;;;;6683432;88;20228;-79
2023/06/16 07:17:55;;;;;;;1999.90;999.90;;;22.70;92.00;;;;;;6668461;88;20204;-76
2023/06/16 07:27:55;;;;;;;1999.90;999.90;;;23.50;91.10;;;;;;6662625;88;20183;-76
2023/06/16 07:37:56;;;;;;;1999.90;999.90;;;24.70;89.60;;;;;;6662470;88;20188;-77
2023/06/16 07:47:57;;;;;;;1999.90;999.90;;;24.30;87.40;;;;;;6669709;88;20494;-77
2023/06/16 07:57:57;;;;;;;1999.90;999.90;;;24.90;89.80;;;;;;6686262;88;20221;-77
2023/06/16 08:07:58;;;;;;;1999.90;999.90;;;25.50;87.10;;;;;;6696030;88;20204;-77
2023/06/16 08:17:58;;;;;;;1999.90;999.90;;;26.60;83.80;;;;;;6694274;88;20169;-77
2023/06/16 08:28:00;;;;;;;1999.90;999.90;;;26.70;81.30;;;;;;6665276;88;20328;-77
2023/06/16 08:38:00;;;;;;;1999.90;999.90;;;27.50;80.00;;;;;;6670638;88;20196;-77
2023/06/16 08:48:01;;;;;;;1999.90;999.90;;;28.30;75.00;;;;;;6677290;77;20255;-79
2023/06/16 08:58:02;;;;;;;1999.90;999.90;;;28.90;73.90;;;;;;6659314;89;20196;-79
2023/06/16 09:08:05;;;;;;;1999.90;999.90;;;29.40;73.20;;;;;;6680585;88;20230;-77
2023/06/16 09:18:06;;;;;;;1999.90;999.90;;;29.60;71.60;;;;;;6655612;88;20734;-76
2023/06/16 09:28:09;;;;;;;1999.90;999.90;;;30.90;65.90;;;;;;6650836;88;21081;-77
2023/06/16 09:38:10;;;;;;;1999.90;999.90;;;30.20;66.70;;;;;;6652829;88;20681;-77
2023/06/16 09:48:11;;;;;;;1999.90;999.90;;;30.90;66.90;;;;;;6682084;88;20210;-77
2023/06/16 09:58:12;;;;;;;1999.90;999.90;;;31.00;65.40;;;;;;6734481;88;20612;-77
2023/06/16 10:08:17;;;;;;;1999.90;999.90;;;31.80;63.20;;;;;;6733657;88;20632;-77
2023/06/16 10:18:20;;;;;;;1999.90;999.90;;;32.30;60.60;;;;;;6726704;88;20184;-78
2023/06/16 10:28:21;;;;;;;1999.90;999.90;;;32.50;59.90;;;;;;6729209;88;20214;-76
2023/06/16 10:38:34;;;;;;;1999.90;999.90;;;32.00;59.00;;;;;;6732576;88;20243;-78
2023/06/16 10:49:04;;;;;;;1999.90;999.90;;;32.60;59.90;;;;;;6731570;88;20359;-78
2023/06/16 10:59:17;;;;;;;1999.90;999.90;;;32.50;58.50;;;;;;6738181;88;21369;-78
2023/06/16 11:09:18;;;;;;;1999.90;999.90;;;32.90;58.90;;;;;;6735193;88;20298;-78
2023/06/16 11:19:19;;;;;;;1999.90;999.90;;;32.60;59.70;;;;;;6744176;88;20323;-78
2023/06/16 11:29:25;;;;;;;1999.90;999.90;;;33.50;57.90;;;;;;6737628;88;20282;-78
2023/06/16 11:39:25;;;;;;;1999.90;999.90;;;33.60;57.50;;;;;;6736612;88;20568;-79
2023/06/16 11:49:26;;;;;;;1999.90;999.90;;;33.30;58.10;;;;;;6734736;88;20621;-81
2023/06/16 11:59:32;;;;;;;1999.90;999.90;;;33.80;58.40;;;;;;6733795;88;20211;-78
2023/06/16 12:09:37;;;;;;;1999.90;999.90;;;34.20;56.90;;;;;;6733993;88;20170;-78
2023/06/16 12:19:38;;;;;;;1999.90;999.90;;;33.80;56.80;;;;;;6726847;88;20206;-79
2023/06/16 12:29:39;;;;;;;1999.90;999.90;;;33.50;56.10;;;;;;6732432;88;20314;-78
2023/06/16 12:39:43;;;;;;;1999.90;999.90;;;33.90;55.70;;;;;;6730249;88;20216;-78
2023/06/16 12:49:44;;;;;;;1999.90;999.90;;;33.50;55.30;;;;;;6731302;88;20274;-77
2023/06/16 12:59:44;;;;;;;1999.90;999.90;;;33.60;54.30;;;;;;6731742;88;20674;-78
2023/06/16 13:09:45;;;;;;;1999.90;999.90;;;34.30;54.30;;;;;;6733557;88;20246;-78
2023/06/16 13:19:46;;;;;;;1999.90;999.90;;;34.20;54.10;;;;;;6734274;88;20340;-78
2023/06/16 13:29:46;;;;;;;1999.90;999.90;;;34.10;53.20;;;;;;6734281;88;21094;-80
2023/06/16 13:39:47;;;;;;;1999.90;999.90;;;33.90;52.90;;;;;;6731658;88;20207;-77
2023/06/16 13:49:48;;;;;;;1999.90;999.90;;;34.10;53.60;;;;;;6731941;88;20213;-78
2023/06/16 13:59:48;;;;;;;1999.90;999.90;;;34.80;52.30;;;;;;6732495;88;20302;-78
2023/06/16 14:09:49;;;;;;;1999.90;999.90;;;34.60;53.00;;;;;;6733991;88;20185;-78
2023/06/16 14:19:49;;;;;;;1999.90;999.90;;;34.20;52.60;;;;;;6741115;88;20195;-77
2023/06/16 14:29:50;;;;;;;1999.90;999.90;;;34.60;52.60;;;;;;6734545;88;20207;-77
2023/06/16 14:39:50;;;;;;;1999.90;999.90;;;33.60;51.90;;;;;;6732363;88;20338;-77
2023/06/16 14:59:54;;;;;;;1999.90;999.90;;;34.10;51.20;;;;;;6764838;88;20173;-80
2023/06/16 15:09:55;;;;;;;1999.90;999.90;;;33.90;50.80;;;;;;6763573;87;20834;-80
2023/06/16 15:19:55;;;;;;;1999.90;999.90;;;33.30;51.50;;;;;;6760515;88;20196;-80
2023/06/16 15:29:56;;;;;;;1999.90;999.90;;;33.30;51.80;;;;;;6760876;88;20622;-80
2023/06/16 15:39:56;;;;;;;1999.90;999.90;;;33.60;51.10;;;;;;6760875;88;20211;-80
2023/06/16 15:49:57;;;;;;;1999.90;999.90;;;33.10;50.20;;;;;;6759449;88;20229;-81
2023/06/16 15:59:57;;;;;;;1999.90;999.90;;;31.90;50.60;;;;;;6759744;88;20200;-79
2023/06/16 16:09:59;;;;;;;1999.90;999.90;;;31.10;52.00;;;;;;6739637;88;20215;-81
2023/06/16 16:19:59;;;;;;;1999.90;999.90;;;32.30;51.70;;;;;;6737139;88;20193;-79
2023/06/16 16:30:00;;;;;;;1999.90;999.90;;;32.00;52.70;;;;;;6741209;88;20912;-79
2023/06/16 16:40:01;;;;;;;1999.90;999.90;;;31.80;52.90;;;;;;6737446;88;20386;-80
2023/06/16 16:50:02;;;;;;;1999.90;999.90;;;31.60;53.10;;;;;;6741714;88;20225;-79
2023/06/16 17:00:03;;;;;;;1999.90;999.90;;;31.30;52.60;;;;;;6737028;88;20188;-79
2023/06/16 17:10:04;;;;;;;1999.90;999.90;;;30.90;54.00;;;;;;6740996;88;20205;-79
2023/06/16 17:20:05;;;;;;;1999.90;999.90;;;31.00;53.90;;;;;;6742419;88;20216;-80
2023/06/16 17:30:07;;;;;;;1999.90;999.90;;;30.90;53.50;;;;;;6752537;88;20157;-79
2023/06/16 17:40:07;;;;;;;1999.90;999.90;;;30.90;53.30;;;;;;6754577;88;20194;-80
2023/06/16 17:50:09;;;;;;;1999.90;999.90;;;30.50;53.90;;;;;;6748430;88;20842;-79
2023/06/16 18:00:10;;;;;;;1999.90;999.90;;;30.30;53.20;;;;;;6761092;88;20168;-78
2023/06/16 18:10:11;;;;;;;1999.90;999.90;;;29.70;53.70;;;;;;6770812;87;20283;-82
2023/06/16 18:20:11;;;;;;;1999.90;999.90;;;29.50;54.20;;;;;;6772373;87;20236;-80
2023/06/16 18:30:12;;;;;;;1999.90;999.90;;;29.00;54.80;;;;;;6768479;87;20701;-79
2023/06/16 18:40:14;;;;;;;1999.90;999.90;;;28.60;54.90;;;;;;6758824;88;20224;-80
2023/06/16 18:50:14;;;;;;;1999.90;999.90;;;28.10;56.00;;;;;;6751753;88;20200;-77
2023/06/16 19:00:15;;;;;;;1999.90;999.90;;;27.70;57.50;;;;;;6730948;88;20194;-77
2023/06/16 19:10:17;;;;;;;1999.90;999.90;;;27.20;56.80;;;;;;6725400;88;20248;-77
2023/06/16 19:20:18;;;;;;;1999.90;999.90;;;26.80;56.80;;;;;;6739230;88;20201;-78
2023/06/16 19:30:18;;;;;;;1999.90;999.90;;;26.50;57.30;;;;;;6739346;88;20323;-77
2023/06/16 19:40:19;;;;;;;1999.90;999.90;;;26.10;58.30;;;;;;6737347;88;20222;-77
2023/06/16 19:51:01;;;;;;;1999.90;999.90;;;25.70;59.00;;;;;;6740565;88;20282;-79
2023/06/16 20:01:41;;;;;;;1999.90;999.90;;;25.50;60.10;;;;;;6680182;89;20202;-80
2023/06/16 20:23:07;;;;;;;1999.90;999.90;;;24.50;62.50;;;;;;6611908;90;20182;-80
2023/06/16 20:33:10;;;;;;;1999.90;999.90;;;24.10;64.10;;;;;;6616291;89;20161;-78
2023/06/16 20:43:11;;;;;;;1999.90;999.90;;;23.80;65.20;;;;;;6732370;88;20275;-77
2023/06/16 20:53:35;;;;;;;1999.90;999.90;;;23.50;66.20;;;;;;6729873;77;20194;-82
2023/06/16 21:03:38;;;;;;;1999.90;999.90;;;23.30;66.80;;;;;;6782413;87;20176;-82
2023/06/16 21:13:39;;;;;;;1999.90;999.90;;;23.00;67.70;;;;;;6770998;88;20195;-81
2023/06/16 21:23:40;;;;;;;1999.90;999.90;;;22.80;67.50;;;;;;6771258;88;20209;-81
2023/06/16 21:33:40;;;;;;;1999.90;999.90;;;22.40;69.70;;;;;;6772707;88;20552;-81
2023/06/16 21:43:41;;;;;;;1999.90;999.90;;;22.10;70.00;;;;;;6769640;88;20201;-82
2023/06/16 21:53:42;;;;;;;1999.90;999.90;;;21.90;70.20;;;;;;6776840;87;20302;-82
2023/06/16 22:03:43;;;;;;;1999.90;999.90;;;21.80;70.70;;;;;;6778356;88;20254;-81
2023/06/16 22:13:45;;;;;;;1999.90;999.90;;;21.60;71.50;;;;;;6776124;88;20226;-81
2023/06/16 22:23:46;;;;;;;1999.90;999.90;;;21.30;72.60;;;;;;6760771;88;20176;-81
2023/06/16 22:33:50;;;;;;;1999.90;999.90;;;21.10;73.90;;;;;;6769169;87;20181;-81
2023/06/16 22:43:52;;;;;;;1999.90;999.90;;;21.00;74.60;;;;;;6779093;88;20160;-80
2023/06/16 22:53:53;;;;;;;1999.90;999.90;;;20.70;75.50;;;;;;6780903;88;20171;-81
2023/06/16 23:03:53;;;;;;;1999.90;999.90;;;20.40;75.80;;;;;;6778581;88;20200;-81
2023/06/16 23:13:54;;;;;;;1999.90;999.90;;;20.10;76.50;;;;;;6779453;88;20217;-82
2023/06/16 23:23:55;;;;;;;1999.90;999.90;;;19.70;77.90;;;;;;6771767;88;20213;-81
2023/06/16 23:33:55;;;;;;;1999.90;999.90;;;19.50;78.60;;;;;;6751552;88;20531;-81
2023/06/16 23:43:56;;;;;;;1999.90;999.90;;;19.20;79.60;;;;;;6756964;88;20180;-81
2023/06/16 23:53:57;;;;;;;1999.90;999.90;;;19.00;81.00;;;;;;6753743;88;20200;-81
